sensor_id;sensor_type;location;lat;lon;timestamp;temperature;humidity
16064;DHT22;8136;53.172;8.256;2022-08-18T00:01:03;20.40;99.90
16064;DHT22;8136;53.172;8.256;2022-08-18T00:03:31;20.40;99.90
16064;DHT22;8136;53.172;8.256;2022-08-18T00:05:58;20.50;99.90
16064;DHT22;8136;53.172;8.256;2022-08-18T00:08:25;20.50;99.90
16064;DHT22;8136;53.172;8.256;2022-08-18T00:10:53;20.50;99.90
16064;DHT22;8136;53.172;8.256;2022-08-18T00:13:20;20.50;99.90
16064;DHT22;8136;53.172;8.256;2022-08-18T00:15:47;20.50;99.90
16064;DHT22;8136;53.172;8.256;2022-08-18T00:18:13;20.40;99.90
16064;DHT22;8136;53.172;8.256;2022-08-18T00:20:42;20.30;99.90
16064;DHT22;8136;53.172;8.256;2022-08-18T00:23:08;20.40;99.90
16064;DHT22;8136;53.172;8.256;2022-08-18T00:25:35;20.40;99.90
16064;DHT22;8136;53.172;8.256;2022-08-18T00:28:02;20.40;99.90
16064;DHT22;8136;53.172;8.256;2022-08-18T00:30:30;20.30;99.90
16064;DHT22;8136;53.172;8.256;2022-08-18T00:32:58;20.30;99.90
16064;DHT22;8136;53.172;8.256;2022-08-18T00:35:27;20.40;99.90
16064;DHT22;8136;53.172;8.256;2022-08-18T00:37:59;20.40;99.90
16064;DHT22;8136;53.172;8.256;2022-08-18T00:40:36;20.30;99.90
16064;DHT22;8136;53.172;8.256;2022-08-18T00:43:05;20.40;99.90
16064;DHT22;8136;53.172;8.256;2022-08-18T00:45:38;20.30;99.90
16064;DHT22;8136;53.172;8.256;2022-08-18T00:48:07;20.40;99.90
16064;DHT22;8136;53.172;8.256;2022-08-18T00:50:39;20.40;99.90
16064;DHT22;8136;53.172;8.256;2022-08-18T00:53:13;20.40;99.90
16064;DHT22;8136;53.172;8.256;2022-08-18T00:55:42;20.40;99.90
16064;DHT22;8136;53.172;8.256;2022-08-18T00:58:13;20.50;99.90
16064;DHT22;8136;53.172;8.256;2022-08-18T01:00:41;20.50;99.90
16064;DHT22;8136;53.172;8.256;2022-08-18T01:03:12;20.40;99.90
16064;DHT22;8136;53.172;8.256;2022-08-18T01:05:44;20.40;99.90
16064;DHT22;8136;53.172;8.256;2022-08-18T01:08:15;20.40;99.90
16064;DHT22;8136;53.172;8.256;2022-08-18T01:10:43;20.40;99.90
16064;DHT22;8136;53.172;8.256;2022-08-18T01:13:10;20.40;99.90
16064;DHT22;8136;53.172;8.256;2022-08-18T01:15:38;20.50;99.90
16064;DHT22;8136;53.172;8.256;2022-08-18T01:18:31;20.50;99.90
16064;DHT22;8136;53.172;8.256;2022-08-18T01:21:28;20.40;99.90
16064;DHT22;8136;53.172;8.256;2022-08-18T01:24:14;20.30;99.90
16064;DHT22;8136;53.172;8.256;2022-08-18T01:26:41;20.30;99.90
16064;DHT22;8136;53.172;8.256;2022-08-18T01:29:16;20.20;99.90
16064;DHT22;8136;53.172;8.256;2022-08-18T01:31:46;20.20;99.90
16064;DHT22;8136;53.172;8.256;2022-08-18T01:34:15;20.20;99.90
16064;DHT22;8136;53.172;8.256;2022-08-18T01:36:46;20.20;99.90
16064;DHT22;8136;53.172;8.256;2022-08-18T01:39:18;20.30;99.90
16064;DHT22;8136;53.172;8.256;2022-08-18T01:41:45;20.30;99.90
16064;DHT22;8136;53.172;8.256;2022-08-18T01:44:12;20.20;99.90
16064;DHT22;8136;53.172;8.256;2022-08-18T01:46:40;20.20;99.90
16064;DHT22;8136;53.172;8.256;2022-08-18T01:49:09;20.20;99.90
16064;DHT22;8136;53.172;8.256;2022-08-18T01:51:36;20.30;99.90
16064;DHT22;8136;53.172;8.256;2022-08-18T01:54:06;20.30;99.90
16064;DHT22;8136;53.172;8.256;2022-08-18T01:56:35;20.20;99.90
16064;DHT22;8136;53.172;8.256;2022-08-18T01:59:02;20.20;99.90
16064;DHT22;8136;53.172;8.256;2022-08-18T02:01:30;20.20;99.90
16064;DHT22;8136;53.172;8.256;2022-08-18T02:03:58;20.20;99.90
16064;DHT22;8136;53.172;8.256;2022-08-18T02:06:26;20.20;99.90
16064;DHT22;8136;53.172;8.256;2022-08-18T02:08:52;20.20;99.90
16064;DHT22;8136;53.172;8.256;2022-08-18T02:11:19;20.20;99.90
16064;DHT22;8136;53.172;8.256;2022-08-18T02:13:47;20.10;99.90
16064;DHT22;8136;53.172;8.256;2022-08-18T02:16:14;20.10;99.90
16064;DHT22;8136;53.172;8.256;2022-08-18T02:18:42;20.10;99.90
16064;DHT22;8136;53.172;8.256;2022-08-18T02:21:10;20.10;99.90
16064;DHT22;8136;53.172;8.256;2022-08-18T02:23:39;20.00;99.90
16064;DHT22;8136;53.172;8.256;2022-08-18T02:26:08;20.00;99.90
16064;DHT22;8136;53.172;8.256;2022-08-18T02:28:36;20.10;99.90
16064;DHT22;8136;53.172;8.256;2022-08-18T02:31:06;20.10;99.90
16064;DHT22;8136;53.172;8.256;2022-08-18T02:33:33;20.00;99.90
16064;DHT22;8136;53.172;8.256;2022-08-18T02:36:00;20.00;99.90
16064;DHT22;8136;53.172;8.256;2022-08-18T02:38:27;20.10;99.90
16064;DHT22;8136;53.172;8.256;2022-08-18T02:40:55;20.10;99.90
16064;DHT22;8136;53.172;8.256;2022-08-18T02:43:21;20.00;99.90
16064;DHT22;8136;53.172;8.256;2022-08-18T02:45:48;20.00;99.90
16064;DHT22;8136;53.172;8.256;2022-08-18T02:48:17;20.00;99.90
16064;DHT22;8136;53.172;8.256;2022-08-18T02:50:45;20.00;99.90
16064;DHT22;8136;53.172;8.256;2022-08-18T02:53:13;19.90;99.90
16064;DHT22;8136;53.172;8.256;2022-08-18T02:55:45;19.90;99.90
16064;DHT22;8136;53.172;8.256;2022-08-18T02:58:12;19.80;99.90
16064;DHT22;8136;53.172;8.256;2022-08-18T03:00:38;19.80;99.90
16064;DHT22;8136;53.172;8.256;2022-08-18T03:03:05;19.70;99.90
16064;DHT22;8136;53.172;8.256;2022-08-18T03:05:33;19.70;99.90
16064;DHT22;8136;53.172;8.256;2022-08-18T03:08:00;19.70;99.90
16064;DHT22;8136;53.172;8.256;2022-08-18T03:10:27;19.70;99.90
16064;DHT22;8136;53.172;8.256;2022-08-18T03:12:54;19.60;99.90
16064;DHT22;8136;53.172;8.256;2022-08-18T03:15:20;19.60;99.90
16064;DHT22;8136;53.172;8.256;2022-08-18T03:17:47;19.60;99.90
16064;DHT22;8136;53.172;8.256;2022-08-18T03:20:16;19.60;99.90
16064;DHT22;8136;53.172;8.256;2022-08-18T03:22:44;19.60;99.90
16064;DHT22;8136;53.172;8.256;2022-08-18T03:25:11;19.70;99.90
16064;DHT22;8136;53.172;8.256;2022-08-18T03:27:37;19.70;99.90
16064;DHT22;8136;53.172;8.256;2022-08-18T03:30:05;19.70;99.90
16064;DHT22;8136;53.172;8.256;2022-08-18T03:32:32;19.70;99.90
16064;DHT22;8136;53.172;8.256;2022-08-18T03:34:59;19.60;99.90
16064;DHT22;8136;53.172;8.256;2022-08-18T03:37:25;19.60;99.90
16064;DHT22;8136;53.172;8.256;2022-08-18T03:39:54;19.60;99.90
16064;DHT22;8136;53.172;8.256;2022-08-18T03:42:20;19.50;99.90
16064;DHT22;8136;53.172;8.256;2022-08-18T03:44:48;19.40;99.90
16064;DHT22;8136;53.172;8.256;2022-08-18T03:47:15;19.50;99.90
16064;DHT22;8136;53.172;8.256;2022-08-18T03:49:42;19.40;99.90
16064;DHT22;8136;53.172;8.256;2022-08-18T03:52:10;19.40;99.90
16064;DHT22;8136;53.172;8.256;2022-08-18T03:54:38;19.40;99.90
16064;DHT22;8136;53.172;8.256;2022-08-18T03:57:08;19.40;99.90
16064;DHT22;8136;53.172;8.256;2022-08-18T03:59:35;19.30;99.90
16064;DHT22;8136;53.172;8.256;2022-08-18T04:02:04;19.30;99.90
16064;DHT22;8136;53.172;8.256;2022-08-18T04:04:30;19.40;99.90
16064;DHT22;8136;53.172;8.256;2022-08-18T04:06:58;19.40;99.90
16064;DHT22;8136;53.172;8.256;2022-08-18T04:09:29;19.40;99.90
16064;DHT22;8136;53.172;8.256;2022-08-18T04:12:01;19.30;99.90
16064;DHT22;8136;53.172;8.256;2022-08-18T04:14:30;19.30;99.90
16064;DHT22;8136;53.172;8.256;2022-08-18T04:16:57;19.40;99.90
16064;DHT22;8136;53.172;8.256;2022-08-18T04:19:25;19.40;99.90
16064;DHT22;8136;53.172;8.256;2022-08-18T04:21:52;19.40;99.90
16064;DHT22;8136;53.172;8.256;2022-08-18T04:24:19;19.30;99.90
16064;DHT22;8136;53.172;8.256;2022-08-18T04:26:47;19.30;99.90
16064;DHT22;8136;53.172;8.256;2022-08-18T04:29:17;19.30;99.90
16064;DHT22;8136;53.172;8.256;2022-08-18T04:31:47;19.40;99.90
16064;DHT22;8136;53.172;8.256;2022-08-18T04:34:15;19.30;99.90
16064;DHT22;8136;53.172;8.256;2022-08-18T04:36:42;19.30;99.90
16064;DHT22;8136;53.172;8.256;2022-08-18T04:39:11;19.30;99.90
16064;DHT22;8136;53.172;8.256;2022-08-18T04:41:39;19.30;99.90
16064;DHT22;8136;53.172;8.256;2022-08-18T04:44:08;19.20;99.90
16064;DHT22;8136;53.172;8.256;2022-08-18T04:46:37;19.20;99.90
16064;DHT22;8136;53.172;8.256;2022-08-18T04:49:07;19.20;99.90
16064;DHT22;8136;53.172;8.256;2022-08-18T04:51:35;19.20;99.90
16064;DHT22;8136;53.172;8.256;2022-08-18T04:54:05;19.30;99.90
16064;DHT22;8136;53.172;8.256;2022-08-18T04:56:33;19.30;99.90
16064;DHT22;8136;53.172;8.256;2022-08-18T04:59:04;19.20;99.90
16064;DHT22;8136;53.172;8.256;2022-08-18T05:01:35;19.30;99.90
16064;DHT22;8136;53.172;8.256;2022-08-18T05:04:02;19.20;99.90
16064;DHT22;8136;53.172;8.256;2022-08-18T05:06:31;19.20;99.90
16064;DHT22;8136;53.172;8.256;2022-08-18T05:09:00;19.10;99.90
16064;DHT22;8136;53.172;8.256;2022-08-18T05:11:29;19.20;99.90
16064;DHT22;8136;53.172;8.256;2022-08-18T05:13:58;19.20;99.90
16064;DHT22;8136;53.172;8.256;2022-08-18T05:16:26;19.30;99.90
16064;DHT22;8136;53.172;8.256;2022-08-18T05:18:53;19.30;99.90
16064;DHT22;8136;53.172;8.256;2022-08-18T05:21:21;19.30;99.90
16064;DHT22;8136;53.172;8.256;2022-08-18T05:23:51;19.30;99.90
16064;DHT22;8136;53.172;8.256;2022-08-18T05:26:18;19.40;99.90
16064;DHT22;8136;53.172;8.256;2022-08-18T05:28:46;19.40;99.90
16064;DHT22;8136;53.172;8.256;2022-08-18T05:31:14;19.40;99.90
16064;DHT22;8136;53.172;8.256;2022-08-18T05:33:42;19.40;99.90
16064;DHT22;8136;53.172;8.256;2022-08-18T05:36:16;19.30;99.90
16064;DHT22;8136;53.172;8.256;2022-08-18T05:38:58;19.30;99.90
16064;DHT22;8136;53.172;8.256;2022-08-18T05:41:31;19.40;99.90
16064;DHT22;8136;53.172;8.256;2022-08-18T05:43:59;19.40;99.90
16064;DHT22;8136;53.172;8.256;2022-08-18T05:46:42;19.40;99.90
16064;DHT22;8136;53.172;8.256;2022-08-18T05:49:10;19.50;99.90
16064;DHT22;8136;53.172;8.256;2022-08-18T05:51:40;19.60;99.90
16064;DHT22;8136;53.172;8.256;2022-08-18T05:54:09;19.70;99.90
16064;DHT22;8136;53.172;8.256;2022-08-18T05:56:57;19.80;99.90
16064;DHT22;8136;53.172;8.256;2022-08-18T05:59:30;19.80;99.90
16064;DHT22;8136;53.172;8.256;2022-08-18T06:02:04;19.90;99.90
16064;DHT22;8136;53.172;8.256;2022-08-18T06:04:40;19.90;99.90
16064;DHT22;8136;53.172;8.256;2022-08-18T06:07:11;19.90;99.90
16064;DHT22;8136;53.172;8.256;2022-08-18T06:09:44;19.90;99.90
16064;DHT22;8136;53.172;8.256;2022-08-18T06:12:19;19.80;99.90
16064;DHT22;8136;53.172;8.256;2022-08-18T06:14:47;19.80;99.90
16064;DHT22;8136;53.172;8.256;2022-08-18T06:17:34;19.80;99.90
16064;DHT22;8136;53.172;8.256;2022-08-18T06:20:07;19.90;99.90
16064;DHT22;8136;53.172;8.256;2022-08-18T06:22:43;19.80;99.90
16064;DHT22;8136;53.172;8.256;2022-08-18T06:25:17;19.80;99.90
16064;DHT22;8136;53.172;8.256;2022-08-18T06:27:52;19.90;99.90
16064;DHT22;8136;53.172;8.256;2022-08-18T06:30:23;19.90;99.90
16064;DHT22;8136;53.172;8.256;2022-08-18T06:33:09;19.80;99.90
16064;DHT22;8136;53.172;8.256;2022-08-18T06:35:41;19.80;99.90
16064;DHT22;8136;53.172;8.256;2022-08-18T06:38:30;19.80;99.90
16064;DHT22;8136;53.172;8.256;2022-08-18T06:41:13;19.80;99.90
16064;DHT22;8136;53.172;8.256;2022-08-18T06:43:49;19.80;99.90
16064;DHT22;8136;53.172;8.256;2022-08-18T06:46:22;19.80;99.90
16064;DHT22;8136;53.172;8.256;2022-08-18T06:48:55;19.90;99.90
16064;DHT22;8136;53.172;8.256;2022-08-18T06:51:27;19.90;99.90
16064;DHT22;8136;53.172;8.256;2022-08-18T06:53:57;19.90;99.90
16064;DHT22;8136;53.172;8.256;2022-08-18T06:56:32;20.00;99.90
16064;DHT22;8136;53.172;8.256;2022-08-18T06:59:14;20.00;99.90
16064;DHT22;8136;53.172;8.256;2022-08-18T07:01:42;19.90;99.90
16064;DHT22;8136;53.172;8.256;2022-08-18T07:04:30;20.00;99.90
16064;DHT22;8136;53.172;8.256;2022-08-18T07:06:57;20.10;99.90
16064;DHT22;8136;53.172;8.256;2022-08-18T07:09:25;20.20;99.90
16064;DHT22;8136;53.172;8.256;2022-08-18T07:12:03;20.20;99.90
16064;DHT22;8136;53.172;8.256;2022-08-18T07:14:31;20.20;99.90
16064;DHT22;8136;53.172;8.256;2022-08-18T07:17:10;20.30;99.90
16064;DHT22;8136;53.172;8.256;2022-08-18T07:19:38;20.20;99.90
16064;DHT22;8136;53.172;8.256;2022-08-18T07:22:07;20.20;99.90
16064;DHT22;8136;53.172;8.256;2022-08-18T07:24:38;20.30;99.90
16064;DHT22;8136;53.172;8.256;2022-08-18T07:27:09;20.30;99.90
16064;DHT22;8136;53.172;8.256;2022-08-18T07:29:39;20.30;99.90
16064;DHT22;8136;53.172;8.256;2022-08-18T07:32:11;20.30;99.90
16064;DHT22;8136;53.172;8.256;2022-08-18T07:34:40;20.40;99.90
16064;DHT22;8136;53.172;8.256;2022-08-18T07:37:15;20.30;99.90
16064;DHT22;8136;53.172;8.256;2022-08-18T07:39:47;20.30;99.90
16064;DHT22;8136;53.172;8.256;2022-08-18T07:42:24;20.40;99.90
16064;DHT22;8136;53.172;8.256;2022-08-18T07:44:59;20.50;99.90
16064;DHT22;8136;53.172;8.256;2022-08-18T07:47:31;20.50;99.90
16064;DHT22;8136;53.172;8.256;2022-08-18T07:50:01;20.60;99.90
16064;DHT22;8136;53.172;8.256;2022-08-18T07:52:30;20.70;99.90
16064;DHT22;8136;53.172;8.256;2022-08-18T07:55:05;20.80;99.90
16064;DHT22;8136;53.172;8.256;2022-08-18T07:57:54;20.90;99.90
16064;DHT22;8136;53.172;8.256;2022-08-18T08:00:24;20.90;99.90
16064;DHT22;8136;53.172;8.256;2022-08-18T08:03:02;21.00;99.90
16064;DHT22;8136;53.172;8.256;2022-08-18T08:05:41;21.00;99.90
16064;DHT22;8136;53.172;8.256;2022-08-18T08:08:18;21.10;99.90
16064;DHT22;8136;53.172;8.256;2022-08-18T08:10:55;21.10;99.90
16064;DHT22;8136;53.172;8.256;2022-08-18T08:13:36;21.10;99.90
16064;DHT22;8136;53.172;8.256;2022-08-18T08:16:11;21.10;99.90
16064;DHT22;8136;53.172;8.256;2022-08-18T08:18:48;21.30;99.90
16064;DHT22;8136;53.172;8.256;2022-08-18T08:21:19;21.40;99.90
16064;DHT22;8136;53.172;8.256;2022-08-18T08:23:51;21.40;99.90
16064;DHT22;8136;53.172;8.256;2022-08-18T08:26:25;21.50;99.90
16064;DHT22;8136;53.172;8.256;2022-08-18T08:29:08;21.50;99.90
16064;DHT22;8136;53.172;8.256;2022-08-18T08:31:47;21.50;99.90
16064;DHT22;8136;53.172;8.256;2022-08-18T08:34:18;21.60;99.90
16064;DHT22;8136;53.172;8.256;2022-08-18T08:36:46;21.60;99.90
16064;DHT22;8136;53.172;8.256;2022-08-18T08:39:19;21.70;99.90
16064;DHT22;8136;53.172;8.256;2022-08-18T08:41:51;21.90;99.90
16064;DHT22;8136;53.172;8.256;2022-08-18T08:44:23;22.00;99.90
16064;DHT22;8136;53.172;8.256;2022-08-18T08:46:57;22.20;99.90
16064;DHT22;8136;53.172;8.256;2022-08-18T08:49:30;22.40;99.90
16064;DHT22;8136;53.172;8.256;2022-08-18T08:52:01;22.50;99.90
16064;DHT22;8136;53.172;8.256;2022-08-18T08:54:37;22.40;99.90
16064;DHT22;8136;53.172;8.256;2022-08-18T08:57:06;22.40;99.90
16064;DHT22;8136;53.172;8.256;2022-08-18T08:59:36;22.40;99.90
16064;DHT22;8136;53.172;8.256;2022-08-18T09:05:04;22.50;99.90
16064;DHT22;8136;53.172;8.256;2022-08-18T09:07:49;22.60;99.90
16064;DHT22;8136;53.172;8.256;2022-08-18T09:10:45;22.70;99.90
16064;DHT22;8136;53.172;8.256;2022-08-18T09:13:52;22.70;99.90
16064;DHT22;8136;53.172;8.256;2022-08-18T09:16:40;22.70;99.90
16064;DHT22;8136;53.172;8.256;2022-08-18T09:19:20;22.90;99.90
16064;DHT22;8136;53.172;8.256;2022-08-18T09:21:58;23.10;99.90
16064;DHT22;8136;53.172;8.256;2022-08-18T09:24:28;23.20;99.90
16064;DHT22;8136;53.172;8.256;2022-08-18T09:27:12;23.30;99.90
16064;DHT22;8136;53.172;8.256;2022-08-18T09:29:50;23.30;99.90
16064;DHT22;8136;53.172;8.256;2022-08-18T09:32:54;23.30;99.90
16064;DHT22;8136;53.172;8.256;2022-08-18T09:35:38;23.40;99.90
16064;DHT22;8136;53.172;8.256;2022-08-18T09:38:11;23.50;99.90
16064;DHT22;8136;53.172;8.256;2022-08-18T09:41:04;23.60;99.90
16064;DHT22;8136;53.172;8.256;2022-08-18T09:43:56;23.70;99.90
16064;DHT22;8136;53.172;8.256;2022-08-18T09:46:58;23.60;99.90
16064;DHT22;8136;53.172;8.256;2022-08-18T09:49:47;23.50;99.90
16064;DHT22;8136;53.172;8.256;2022-08-18T09:55:55;23.50;99.90
16064;DHT22;8136;53.172;8.256;2022-08-18T09:58:48;23.40;99.90
16064;DHT22;8136;53.172;8.256;2022-08-18T10:01:36;23.40;99.90
16064;DHT22;8136;53.172;8.256;2022-08-18T10:04:27;23.30;99.90
16064;DHT22;8136;53.172;8.256;2022-08-18T10:07:16;23.30;99.90
16064;DHT22;8136;53.172;8.256;2022-08-18T10:12:47;23.20;99.90
16064;DHT22;8136;53.172;8.256;2022-08-18T10:15:26;23.30;99.90
16064;DHT22;8136;53.172;8.256;2022-08-18T10:18:27;23.50;99.90
16064;DHT22;8136;53.172;8.256;2022-08-18T10:21:07;23.70;99.90
16064;DHT22;8136;53.172;8.256;2022-08-18T10:23:58;23.70;99.90
16064;DHT22;8136;53.172;8.256;2022-08-18T10:27:10;23.80;99.90
16064;DHT22;8136;53.172;8.256;2022-08-18T10:29:58;23.80;99.90
16064;DHT22;8136;53.172;8.256;2022-08-18T10:32:43;23.70;99.90
16064;DHT22;8136;53.172;8.256;2022-08-18T10:41:17;23.60;99.90
16064;DHT22;8136;53.172;8.256;2022-08-18T10:43:47;23.60;99.90
16064;DHT22;8136;53.172;8.256;2022-08-18T10:46:17;23.60;99.90
16064;DHT22;8136;53.172;8.256;2022-08-18T10:49:00;23.60;99.90
16064;DHT22;8136;53.172;8.256;2022-08-18T10:51:38;23.60;99.90
16064;DHT22;8136;53.172;8.256;2022-08-18T10:54:12;23.70;99.90
16064;DHT22;8136;53.172;8.256;2022-08-18T10:56:46;23.70;99.90
16064;DHT22;8136;53.172;8.256;2022-08-18T10:59:21;23.70;99.90
16064;DHT22;8136;53.172;8.256;2022-08-18T11:02:04;23.80;99.90
16064;DHT22;8136;53.172;8.256;2022-08-18T11:04:40;23.60;99.90
16064;DHT22;8136;53.172;8.256;2022-08-18T11:07:10;23.60;99.90
16064;DHT22;8136;53.172;8.256;2022-08-18T11:09:40;23.70;99.90
16064;DHT22;8136;53.172;8.256;2022-08-18T11:12:11;23.80;99.90
16064;DHT22;8136;53.172;8.256;2022-08-18T11:15:03;23.90;99.90
16064;DHT22;8136;53.172;8.256;2022-08-18T11:17:41;24.00;99.90
16064;DHT22;8136;53.172;8.256;2022-08-18T11:20:13;24.00;99.90
16064;DHT22;8136;53.172;8.256;2022-08-18T11:22:50;24.10;99.90
16064;DHT22;8136;53.172;8.256;2022-08-18T11:25:24;24.20;99.90
16064;DHT22;8136;53.172;8.256;2022-08-18T11:27:53;24.30;99.90
16064;DHT22;8136;53.172;8.256;2022-08-18T11:30:22;24.30;99.90
16064;DHT22;8136;53.172;8.256;2022-08-18T11:32:51;24.30;99.90
16064;DHT22;8136;53.172;8.256;2022-08-18T11:35:20;24.30;99.90
16064;DHT22;8136;53.172;8.256;2022-08-18T11:37:57;24.30;99.90
16064;DHT22;8136;53.172;8.256;2022-08-18T11:40:37;24.30;99.90
16064;DHT22;8136;53.172;8.256;2022-08-18T11:43:10;24.40;99.90
16064;DHT22;8136;53.172;8.256;2022-08-18T11:45:50;24.30;99.90
16064;DHT22;8136;53.172;8.256;2022-08-18T11:48:21;24.40;99.90
16064;DHT22;8136;53.172;8.256;2022-08-18T11:50:58;24.50;99.90
16064;DHT22;8136;53.172;8.256;2022-08-18T11:53:37;24.60;99.90
16064;DHT22;8136;53.172;8.256;2022-08-18T11:56:10;24.60;99.90
16064;DHT22;8136;53.172;8.256;2022-08-18T11:58:43;24.40;99.90
16064;DHT22;8136;53.172;8.256;2022-08-18T12:01:14;24.20;99.90
16064;DHT22;8136;53.172;8.256;2022-08-18T12:03:54;24.20;99.90
16064;DHT22;8136;53.172;8.256;2022-08-18T12:06:25;24.30;99.90
16064;DHT22;8136;53.172;8.256;2022-08-18T12:08:57;24.30;99.90
16064;DHT22;8136;53.172;8.256;2022-08-18T12:11:27;24.40;99.90
16064;DHT22;8136;53.172;8.256;2022-08-18T12:14:03;24.40;99.90
16064;DHT22;8136;53.172;8.256;2022-08-18T12:16:35;24.50;99.90
16064;DHT22;8136;53.172;8.256;2022-08-18T12:19:03;24.50;99.90
16064;DHT22;8136;53.172;8.256;2022-08-18T12:21:31;24.60;99.90
16064;DHT22;8136;53.172;8.256;2022-08-18T12:23:58;24.60;99.90
16064;DHT22;8136;53.172;8.256;2022-08-18T12:26:25;24.70;99.90
16064;DHT22;8136;53.172;8.256;2022-08-18T12:28:51;24.60;99.90
16064;DHT22;8136;53.172;8.256;2022-08-18T12:31:19;24.60;99.90
16064;DHT22;8136;53.172;8.256;2022-08-18T12:33:46;24.50;99.90
16064;DHT22;8136;53.172;8.256;2022-08-18T12:36:13;24.40;99.90
16064;DHT22;8136;53.172;8.256;2022-08-18T12:38:42;24.30;99.90
16064;DHT22;8136;53.172;8.256;2022-08-18T12:41:10;24.30;99.90
16064;DHT22;8136;53.172;8.256;2022-08-18T12:43:40;24.40;99.90
16064;DHT22;8136;53.172;8.256;2022-08-18T12:46:07;24.40;99.90
16064;DHT22;8136;53.172;8.256;2022-08-18T12:48:36;24.50;99.90
16064;DHT22;8136;53.172;8.256;2022-08-18T12:51:04;24.40;99.90
16064;DHT22;8136;53.172;8.256;2022-08-18T12:53:30;24.30;99.90
16064;DHT22;8136;53.172;8.256;2022-08-18T12:55:57;24.40;99.90
16064;DHT22;8136;53.172;8.256;2022-08-18T12:58:24;24.50;99.90
16064;DHT22;8136;53.172;8.256;2022-08-18T13:00:51;24.50;99.90
16064;DHT22;8136;53.172;8.256;2022-08-18T13:03:19;24.50;99.90
16064;DHT22;8136;53.172;8.256;2022-08-18T13:05:48;24.40;99.90
16064;DHT22;8136;53.172;8.256;2022-08-18T13:08:17;24.30;99.90
16064;DHT22;8136;53.172;8.256;2022-08-18T13:10:45;24.30;99.90
16064;DHT22;8136;53.172;8.256;2022-08-18T13:13:13;24.20;99.90
16064;DHT22;8136;53.172;8.256;2022-08-18T13:15:40;24.20;99.90
16064;DHT22;8136;53.172;8.256;2022-08-18T13:18:07;24.10;99.90
16064;DHT22;8136;53.172;8.256;2022-08-18T13:20:34;24.20;99.90
16064;DHT22;8136;53.172;8.256;2022-08-18T13:23:02;24.20;99.90
16064;DHT22;8136;53.172;8.256;2022-08-18T13:25:29;24.30;99.90
16064;DHT22;8136;53.172;8.256;2022-08-18T13:27:56;24.40;99.90
16064;DHT22;8136;53.172;8.256;2022-08-18T13:30:23;24.40;99.90
16064;DHT22;8136;53.172;8.256;2022-08-18T13:32:50;24.30;99.90
16064;DHT22;8136;53.172;8.256;2022-08-18T13:35:17;24.20;99.90
16064;DHT22;8136;53.172;8.256;2022-08-18T13:37:44;24.10;99.90
16064;DHT22;8136;53.172;8.256;2022-08-18T13:40:12;24.00;99.90
16064;DHT22;8136;53.172;8.256;2022-08-18T13:42:44;24.00;99.90
16064;DHT22;8136;53.172;8.256;2022-08-18T13:45:12;24.00;99.90
16064;DHT22;8136;53.172;8.256;2022-08-18T13:47:39;24.10;99.90
16064;DHT22;8136;53.172;8.256;2022-08-18T13:50:07;24.30;99.90
16064;DHT22;8136;53.172;8.256;2022-08-18T13:52:36;25.30;99.90
16064;DHT22;8136;53.172;8.256;2022-08-18T13:55:04;26.90;99.90
16064;DHT22;8136;53.172;8.256;2022-08-18T13:57:32;28.80;99.90
16064;DHT22;8136;53.172;8.256;2022-08-18T13:59:59;30.00;99.90
16064;DHT22;8136;53.172;8.256;2022-08-18T14:02:26;30.80;99.90
16064;DHT22;8136;53.172;8.256;2022-08-18T14:04:52;31.20;99.90
16064;DHT22;8136;53.172;8.256;2022-08-18T14:07:20;30.30;99.90
16064;DHT22;8136;53.172;8.256;2022-08-18T14:09:47;29.60;99.90
16064;DHT22;8136;53.172;8.256;2022-08-18T14:12:16;30.00;99.90
16064;DHT22;8136;53.172;8.256;2022-08-18T14:14:45;31.00;99.90
16064;DHT22;8136;53.172;8.256;2022-08-18T14:17:12;31.30;99.90
16064;DHT22;8136;53.172;8.256;2022-08-18T14:19:39;30.80;99.90
16064;DHT22;8136;53.172;8.256;2022-08-18T14:22:23;30.20;99.90
16064;DHT22;8136;53.172;8.256;2022-08-18T14:25:16;29.50;99.90
16064;DHT22;8136;53.172;8.256;2022-08-18T14:28:00;29.40;99.90
16064;DHT22;8136;53.172;8.256;2022-08-18T14:30:29;29.80;99.90
16064;DHT22;8136;53.172;8.256;2022-08-18T14:32:57;30.80;99.90
16064;DHT22;8136;53.172;8.256;2022-08-18T14:35:23;31.30;99.90
16064;DHT22;8136;53.172;8.256;2022-08-18T14:37:50;32.00;99.90
16064;DHT22;8136;53.172;8.256;2022-08-18T14:40:17;32.10;99.90
16064;DHT22;8136;53.172;8.256;2022-08-18T14:42:45;31.20;99.90
16064;DHT22;8136;53.172;8.256;2022-08-18T14:45:12;30.10;99.90
16064;DHT22;8136;53.172;8.256;2022-08-18T14:47:41;29.10;99.90
16064;DHT22;8136;53.172;8.256;2022-08-18T14:50:08;28.40;99.90
16064;DHT22;8136;53.172;8.256;2022-08-18T14:52:38;27.70;99.90
16064;DHT22;8136;53.172;8.256;2022-08-18T14:55:06;27.20;99.90
16064;DHT22;8136;53.172;8.256;2022-08-18T14:57:33;26.90;99.90
16064;DHT22;8136;53.172;8.256;2022-08-18T14:59:59;26.70;99.90
16064;DHT22;8136;53.172;8.256;2022-08-18T15:02:26;26.30;99.90
16064;DHT22;8136;53.172;8.256;2022-08-18T15:04:54;26.00;99.90
16064;DHT22;8136;53.172;8.256;2022-08-18T15:07:21;25.60;99.90
16064;DHT22;8136;53.172;8.256;2022-08-18T15:09:48;25.50;99.90
16064;DHT22;8136;53.172;8.256;2022-08-18T15:12:15;25.50;99.90
16064;DHT22;8136;53.172;8.256;2022-08-18T15:14:42;26.20;99.90
16064;DHT22;8136;53.172;8.256;2022-08-18T15:17:09;28.10;99.90
16064;DHT22;8136;53.172;8.256;2022-08-18T15:19:36;30.20;99.90
16064;DHT22;8136;53.172;8.256;2022-08-18T15:22:04;32.10;99.90
16064;DHT22;8136;53.172;8.256;2022-08-18T15:24:49;33.70;99.90
16064;DHT22;8136;53.172;8.256;2022-08-18T15:27:34;34.80;99.10
16064;DHT22;8136;53.172;8.256;2022-08-18T15:30:03;35.40;97.80
16064;DHT22;8136;53.172;8.256;2022-08-18T15:32:30;35.90;96.60
16064;DHT22;8136;53.172;8.256;2022-08-18T15:34:57;35.60;95.50
16064;DHT22;8136;53.172;8.256;2022-08-18T15:37:27;35.10;96.90
16064;DHT22;8136;53.172;8.256;2022-08-18T15:40:01;35.80;96.00
16064;DHT22;8136;53.172;8.256;2022-08-18T15:42:35;36.70;95.00
16064;DHT22;8136;53.172;8.256;2022-08-18T15:45:03;37.50;93.70
16064;DHT22;8136;53.172;8.256;2022-08-18T15:47:32;37.80;92.80
16064;DHT22;8136;53.172;8.256;2022-08-18T15:49:59;37.90;92.10
16064;DHT22;8136;53.172;8.256;2022-08-18T15:52:27;37.50;91.70
16064;DHT22;8136;53.172;8.256;2022-08-18T15:54:54;37.30;92.00
16064;DHT22;8136;53.172;8.256;2022-08-18T15:57:21;37.30;91.60
16064;DHT22;8136;53.172;8.256;2022-08-18T15:59:49;36.90;91.40
16064;DHT22;8136;53.172;8.256;2022-08-18T16:02:16;35.60;91.80
16064;DHT22;8136;53.172;8.256;2022-08-18T16:04:43;34.00;93.30
16064;DHT22;8136;53.172;8.256;2022-08-18T16:07:09;32.20;95.00
16064;DHT22;8136;53.172;8.256;2022-08-18T16:09:38;30.60;97.20
16064;DHT22;8136;53.172;8.256;2022-08-18T16:12:07;29.30;99.40
16064;DHT22;8136;53.172;8.256;2022-08-18T16:14:36;28.60;99.90
16064;DHT22;8136;53.172;8.256;2022-08-18T16:17:03;28.20;99.90
16064;DHT22;8136;53.172;8.256;2022-08-18T16:19:30;27.80;99.90
16064;DHT22;8136;53.172;8.256;2022-08-18T16:21:56;27.40;99.90
16064;DHT22;8136;53.172;8.256;2022-08-18T16:24:23;27.00;99.90
16064;DHT22;8136;53.172;8.256;2022-08-18T16:26:51;26.50;99.90
16064;DHT22;8136;53.172;8.256;2022-08-18T16:29:18;26.20;99.90